METAR Data

Data at: 1031 UTC 21 Apr 2021

METAR for:KWST (Westerly State Arpt, RI, US)
Text:KWST 210953Z AUTO 00000KT 10SM CLR 08/07 A2984 RMK AO2 SLP104 T00830072
Temperature: 8.3°C ( 47°F)
Dewpoint: 7.2°C ( 45°F) [RH = 93%]
Pressure (altimeter):29.84 inches Hg (1010.6 mb) [Sea level pressure: 1010.4 mb]
Winds:calm
Visibility:10 or more sm (16+ km)
Ceiling:at least 12,000 feet AGL
Clouds:sky clear below 12,000 feet AGL
QC Flag:automated observation with no human augmentation